sensor_id;sensor_type;location;lat;lon;timestamp;P1;durP1;ratioP1;P2;durP2;ratioP2
34278;SDS011;20538;51.528;9.942;2023-07-31T00:00:27;3.97;;;1.60;;
34278;SDS011;20538;51.528;9.942;2023-07-31T00:02:53;2.28;;;1.58;;
34278;SDS011;20538;51.528;9.942;2023-07-31T00:05:19;4.20;;;1.58;;
34278;SDS011;20538;51.528;9.942;2023-07-31T00:07:45;6.88;;;2.33;;
34278;SDS011;20538;51.528;9.942;2023-07-31T00:10:11;4.53;;;1.70;;
34278;SDS011;20538;51.528;9.942;2023-07-31T00:12:37;4.80;;;1.65;;
34278;SDS011;20538;51.528;9.942;2023-07-31T00:15:04;5.10;;;2.05;;
34278;SDS011;20538;51.528;9.942;2023-07-31T00:17:31;5.47;;;1.77;;
34278;SDS011;20538;51.528;9.942;2023-07-31T00:19:56;5.50;;;1.77;;
34278;SDS011;20538;51.528;9.942;2023-07-31T00:22:22;4.32;;;1.63;;
34278;SDS011;20538;51.528;9.942;2023-07-31T00:24:48;5.43;;;1.75;;
34278;SDS011;20538;51.528;9.942;2023-07-31T00:27:13;4.10;;;1.80;;
34278;SDS011;20538;51.528;9.942;2023-07-31T00:29:39;4.95;;;1.60;;
34278;SDS011;20538;51.528;9.942;2023-07-31T00:32:05;4.40;;;1.40;;
34278;SDS011;20538;51.528;9.942;2023-07-31T00:34:31;3.60;;;1.75;;
34278;SDS011;20538;51.528;9.942;2023-07-31T00:36:56;5.97;;;1.80;;
34278;SDS011;20538;51.528;9.942;2023-07-31T00:39:22;5.43;;;1.77;;
34278;SDS011;20538;51.528;9.942;2023-07-31T00:41:48;3.65;;;1.98;;
34278;SDS011;20538;51.528;9.942;2023-07-31T00:44:13;4.43;;;1.90;;
34278;SDS011;20538;51.528;9.942;2023-07-31T00:46:39;2.60;;;1.50;;
34278;SDS011;20538;51.528;9.942;2023-07-31T00:49:04;7.70;;;2.20;;
34278;SDS011;20538;51.528;9.942;2023-07-31T00:51:31;4.50;;;1.85;;
34278;SDS011;20538;51.528;9.942;2023-07-31T00:53:57;8.63;;;2.10;;
34278;SDS011;20538;51.528;9.942;2023-07-31T00:56:23;5.93;;;2.08;;
34278;SDS011;20538;51.528;9.942;2023-07-31T00:58:50;4.35;;;2.33;;
34278;SDS011;20538;51.528;9.942;2023-07-31T01:01:15;6.65;;;1.75;;
34278;SDS011;20538;51.528;9.942;2023-07-31T01:03:41;4.70;;;1.98;;
34278;SDS011;20538;51.528;9.942;2023-07-31T01:06:18;4.10;;;2.15;;
34278;SDS011;20538;51.528;9.942;2023-07-31T01:09:03;5.25;;;2.15;;
34278;SDS011;20538;51.528;9.942;2023-07-31T01:12:02;4.50;;;1.90;;
34278;SDS011;20538;51.528;9.942;2023-07-31T01:14:29;8.27;;;2.13;;
34278;SDS011;20538;51.528;9.942;2023-07-31T01:16:55;6.55;;;1.90;;
34278;SDS011;20538;51.528;9.942;2023-07-31T01:19:21;10.00;;;2.13;;
34278;SDS011;20538;51.528;9.942;2023-07-31T01:21:54;6.07;;;2.38;;
34278;SDS011;20538;51.528;9.942;2023-07-31T01:24:40;7.00;;;2.25;;
34278;SDS011;20538;51.528;9.942;2023-07-31T01:27:17;4.90;;;1.92;;
34278;SDS011;20538;51.528;9.942;2023-07-31T01:32:24;8.70;;;1.73;;
34278;SDS011;20538;51.528;9.942;2023-07-31T01:34:53;8.43;;;2.33;;
34278;SDS011;20538;51.528;9.942;2023-07-31T01:37:19;7.72;;;2.50;;
34278;SDS011;20538;51.528;9.942;2023-07-31T01:39:44;5.53;;;2.45;;
34278;SDS011;20538;51.528;9.942;2023-07-31T01:42:10;6.80;;;2.50;;
34278;SDS011;20538;51.528;9.942;2023-07-31T01:44:36;9.80;;;2.65;;
34278;SDS011;20538;51.528;9.942;2023-07-31T01:47:01;11.88;;;2.80;;
34278;SDS011;20538;51.528;9.942;2023-07-31T01:49:27;5.68;;;1.95;;
34278;SDS011;20538;51.528;9.942;2023-07-31T01:51:52;7.43;;;2.42;;
34278;SDS011;20538;51.528;9.942;2023-07-31T01:54:18;4.45;;;2.00;;
34278;SDS011;20538;51.528;9.942;2023-07-31T01:56:43;3.95;;;2.30;;
34278;SDS011;20538;51.528;9.942;2023-07-31T01:59:09;6.15;;;2.20;;
34278;SDS011;20538;51.528;9.942;2023-07-31T02:01:35;6.07;;;2.42;;
34278;SDS011;20538;51.528;9.942;2023-07-31T02:04:00;6.43;;;2.95;;
34278;SDS011;20538;51.528;9.942;2023-07-31T02:06:26;6.93;;;2.83;;
34278;SDS011;20538;51.528;9.942;2023-07-31T02:08:52;8.70;;;2.35;;
34278;SDS011;20538;51.528;9.942;2023-07-31T02:11:17;5.70;;;2.40;;
34278;SDS011;20538;51.528;9.942;2023-07-31T02:13:43;7.13;;;2.80;;
34278;SDS011;20538;51.528;9.942;2023-07-31T02:16:08;7.43;;;2.47;;
34278;SDS011;20538;51.528;9.942;2023-07-31T02:18:34;7.63;;;2.25;;
34278;SDS011;20538;51.528;9.942;2023-07-31T02:21:00;8.65;;;2.83;;
34278;SDS011;20538;51.528;9.942;2023-07-31T02:23:25;6.43;;;2.40;;
34278;SDS011;20538;51.528;9.942;2023-07-31T02:25:51;5.45;;;2.33;;
34278;SDS011;20538;51.528;9.942;2023-07-31T02:28:17;6.95;;;2.38;;
34278;SDS011;20538;51.528;9.942;2023-07-31T02:30:45;6.40;;;2.25;;
34278;SDS011;20538;51.528;9.942;2023-07-31T02:33:11;5.20;;;2.05;;
34278;SDS011;20538;51.528;9.942;2023-07-31T02:35:37;6.57;;;2.53;;
34278;SDS011;20538;51.528;9.942;2023-07-31T02:38:02;10.15;;;2.55;;
34278;SDS011;20538;51.528;9.942;2023-07-31T02:40:28;4.88;;;2.00;;
34278;SDS011;20538;51.528;9.942;2023-07-31T02:42:54;8.18;;;2.22;;
34278;SDS011;20538;51.528;9.942;2023-07-31T02:45:19;4.55;;;2.47;;
34278;SDS011;20538;51.528;9.942;2023-07-31T02:47:45;7.22;;;2.55;;
34278;SDS011;20538;51.528;9.942;2023-07-31T02:50:10;6.07;;;1.95;;
34278;SDS011;20538;51.528;9.942;2023-07-31T02:52:36;5.18;;;2.60;;
34278;SDS011;20538;51.528;9.942;2023-07-31T02:55:02;7.88;;;2.28;;
34278;SDS011;20538;51.528;9.942;2023-07-31T02:57:27;4.90;;;2.10;;
34278;SDS011;20538;51.528;9.942;2023-07-31T02:59:53;3.10;;;1.90;;
34278;SDS011;20538;51.528;9.942;2023-07-31T03:02:18;8.73;;;2.20;;
34278;SDS011;20538;51.528;9.942;2023-07-31T03:04:44;4.00;;;2.40;;
34278;SDS011;20538;51.528;9.942;2023-07-31T03:07:10;7.78;;;2.60;;
34278;SDS011;20538;51.528;9.942;2023-07-31T03:09:35;4.10;;;1.95;;
34278;SDS011;20538;51.528;9.942;2023-07-31T03:12:01;5.32;;;2.00;;
34278;SDS011;20538;51.528;9.942;2023-07-31T03:14:26;4.93;;;2.40;;
34278;SDS011;20538;51.528;9.942;2023-07-31T03:16:53;7.80;;;2.20;;
34278;SDS011;20538;51.528;9.942;2023-07-31T03:19:18;6.85;;;2.13;;
34278;SDS011;20538;51.528;9.942;2023-07-31T03:21:44;4.15;;;2.33;;
34278;SDS011;20538;51.528;9.942;2023-07-31T03:24:10;6.75;;;2.55;;
34278;SDS011;20538;51.528;9.942;2023-07-31T03:26:37;6.88;;;2.45;;
34278;SDS011;20538;51.528;9.942;2023-07-31T03:29:06;4.32;;;2.35;;
34278;SDS011;20538;51.528;9.942;2023-07-31T03:31:32;4.03;;;2.20;;
34278;SDS011;20538;51.528;9.942;2023-07-31T03:33:57;3.97;;;2.33;;
34278;SDS011;20538;51.528;9.942;2023-07-31T03:36:23;7.70;;;3.15;;
34278;SDS011;20538;51.528;9.942;2023-07-31T03:38:49;10.25;;;2.78;;
34278;SDS011;20538;51.528;9.942;2023-07-31T03:41:14;7.45;;;2.80;;
34278;SDS011;20538;51.528;9.942;2023-07-31T03:43:40;4.65;;;2.65;;
34278;SDS011;20538;51.528;9.942;2023-07-31T03:46:05;5.60;;;2.80;;
34278;SDS011;20538;51.528;9.942;2023-07-31T03:48:31;6.20;;;3.05;;
34278;SDS011;20538;51.528;9.942;2023-07-31T03:50:56;7.85;;;3.45;;
34278;SDS011;20538;51.528;9.942;2023-07-31T03:53:22;9.13;;;3.38;;
34278;SDS011;20538;51.528;9.942;2023-07-31T03:55:48;8.07;;;3.28;;
34278;SDS011;20538;51.528;9.942;2023-07-31T03:58:13;7.72;;;3.15;;
34278;SDS011;20538;51.528;9.942;2023-07-31T04:00:40;6.00;;;2.88;;
34278;SDS011;20538;51.528;9.942;2023-07-31T04:03:05;6.05;;;3.10;;
34278;SDS011;20538;51.528;9.942;2023-07-31T04:05:31;5.43;;;3.28;;
34278;SDS011;20538;51.528;9.942;2023-07-31T04:07:57;7.68;;;3.15;;
34278;SDS011;20538;51.528;9.942;2023-07-31T04:10:23;6.47;;;3.30;;
34278;SDS011;20538;51.528;9.942;2023-07-31T04:12:48;6.97;;;3.72;;
34278;SDS011;20538;51.528;9.942;2023-07-31T04:15:14;6.68;;;3.17;;
34278;SDS011;20538;51.528;9.942;2023-07-31T04:17:40;5.95;;;3.30;;
34278;SDS011;20538;51.528;9.942;2023-07-31T04:20:06;10.88;;;3.58;;
34278;SDS011;20538;51.528;9.942;2023-07-31T04:22:31;8.90;;;3.80;;
34278;SDS011;20538;51.528;9.942;2023-07-31T04:24:57;6.72;;;3.15;;
34278;SDS011;20538;51.528;9.942;2023-07-31T04:27:23;9.13;;;3.03;;
34278;SDS011;20538;51.528;9.942;2023-07-31T04:29:48;10.15;;;2.90;;
34278;SDS011;20538;51.528;9.942;2023-07-31T04:32:14;5.55;;;3.08;;
34278;SDS011;20538;51.528;9.942;2023-07-31T04:34:43;8.32;;;3.10;;
34278;SDS011;20538;51.528;9.942;2023-07-31T04:37:08;6.40;;;3.50;;
34278;SDS011;20538;51.528;9.942;2023-07-31T04:39:34;8.45;;;3.67;;
34278;SDS011;20538;51.528;9.942;2023-07-31T04:42:00;10.27;;;3.55;;
34278;SDS011;20538;51.528;9.942;2023-07-31T04:44:25;9.07;;;4.05;;
34278;SDS011;20538;51.528;9.942;2023-07-31T04:46:51;8.65;;;3.33;;
34278;SDS011;20538;51.528;9.942;2023-07-31T04:49:16;6.47;;;3.20;;
34278;SDS011;20538;51.528;9.942;2023-07-31T04:51:42;6.68;;;3.30;;
34278;SDS011;20538;51.528;9.942;2023-07-31T04:54:08;8.57;;;3.78;;
34278;SDS011;20538;51.528;9.942;2023-07-31T04:56:33;9.15;;;3.38;;
34278;SDS011;20538;51.528;9.942;2023-07-31T04:58:59;6.78;;;3.40;;
34278;SDS011;20538;51.528;9.942;2023-07-31T05:01:25;5.90;;;3.45;;
34278;SDS011;20538;51.528;9.942;2023-07-31T05:03:50;7.05;;;3.67;;
34278;SDS011;20538;51.528;9.942;2023-07-31T05:06:16;5.30;;;3.03;;
34278;SDS011;20538;51.528;9.942;2023-07-31T05:08:41;6.78;;;3.28;;
34278;SDS011;20538;51.528;9.942;2023-07-31T05:11:07;7.05;;;3.05;;
34278;SDS011;20538;51.528;9.942;2023-07-31T05:13:33;7.50;;;3.30;;
34278;SDS011;20538;51.528;9.942;2023-07-31T05:15:58;6.05;;;3.13;;
34278;SDS011;20538;51.528;9.942;2023-07-31T05:18:24;7.20;;;3.13;;
34278;SDS011;20538;51.528;9.942;2023-07-31T05:20:50;8.73;;;3.35;;
34278;SDS011;20538;51.528;9.942;2023-07-31T05:23:15;10.80;;;3.60;;
34278;SDS011;20538;51.528;9.942;2023-07-31T05:25:41;8.07;;;2.95;;
34278;SDS011;20538;51.528;9.942;2023-07-31T05:28:06;6.03;;;2.92;;
34278;SDS011;20538;51.528;9.942;2023-07-31T05:30:32;5.90;;;2.80;;
34278;SDS011;20538;51.528;9.942;2023-07-31T05:32:58;5.30;;;2.67;;
34278;SDS011;20538;51.528;9.942;2023-07-31T05:35:23;7.97;;;3.40;;
34278;SDS011;20538;51.528;9.942;2023-07-31T05:37:49;4.63;;;2.80;;
34278;SDS011;20538;51.528;9.942;2023-07-31T05:40:14;4.72;;;2.60;;
34278;SDS011;20538;51.528;9.942;2023-07-31T05:42:40;5.38;;;2.55;;
34278;SDS011;20538;51.528;9.942;2023-07-31T05:45:06;6.70;;;3.72;;
34278;SDS011;20538;51.528;9.942;2023-07-31T05:47:32;5.03;;;2.80;;
34278;SDS011;20538;51.528;9.942;2023-07-31T05:49:58;5.72;;;2.72;;
34278;SDS011;20538;51.528;9.942;2023-07-31T05:52:24;7.60;;;2.78;;
34278;SDS011;20538;51.528;9.942;2023-07-31T05:54:49;5.32;;;2.63;;
34278;SDS011;20538;51.528;9.942;2023-07-31T05:57:15;3.92;;;2.40;;
34278;SDS011;20538;51.528;9.942;2023-07-31T05:59:41;7.22;;;3.20;;
34278;SDS011;20538;51.528;9.942;2023-07-31T06:02:07;6.80;;;2.53;;
34278;SDS011;20538;51.528;9.942;2023-07-31T06:04:32;7.05;;;2.80;;
34278;SDS011;20538;51.528;9.942;2023-07-31T06:06:58;7.15;;;2.80;;
34278;SDS011;20538;51.528;9.942;2023-07-31T06:09:24;6.88;;;2.72;;
34278;SDS011;20538;51.528;9.942;2023-07-31T06:11:50;8.82;;;3.00;;
34278;SDS011;20538;51.528;9.942;2023-07-31T06:14:16;6.45;;;2.75;;
34278;SDS011;20538;51.528;9.942;2023-07-31T06:16:42;9.20;;;3.60;;
34278;SDS011;20538;51.528;9.942;2023-07-31T06:19:09;8.07;;;3.05;;
34278;SDS011;20538;51.528;9.942;2023-07-31T06:21:34;9.75;;;3.63;;
34278;SDS011;20538;51.528;9.942;2023-07-31T06:24:02;9.02;;;2.85;;
34278;SDS011;20538;51.528;9.942;2023-07-31T06:26:28;10.25;;;3.05;;
34278;SDS011;20538;51.528;9.942;2023-07-31T06:28:54;8.75;;;3.50;;
34278;SDS011;20538;51.528;9.942;2023-07-31T06:31:20;6.47;;;2.65;;
34278;SDS011;20538;51.528;9.942;2023-07-31T06:33:48;6.28;;;2.75;;
34278;SDS011;20538;51.528;9.942;2023-07-31T06:36:14;8.93;;;2.78;;
34278;SDS011;20538;51.528;9.942;2023-07-31T06:38:40;8.20;;;2.88;;
34278;SDS011;20538;51.528;9.942;2023-07-31T06:41:05;5.50;;;3.05;;
34278;SDS011;20538;51.528;9.942;2023-07-31T06:43:31;5.93;;;3.20;;
34278;SDS011;20538;51.528;9.942;2023-07-31T06:45:56;6.97;;;3.25;;
34278;SDS011;20538;51.528;9.942;2023-07-31T06:48:22;6.72;;;3.28;;
34278;SDS011;20538;51.528;9.942;2023-07-31T06:50:48;10.55;;;3.63;;
34278;SDS011;20538;51.528;9.942;2023-07-31T06:53:13;6.63;;;3.28;;
34278;SDS011;20538;51.528;9.942;2023-07-31T06:55:39;5.45;;;3.15;;
34278;SDS011;20538;51.528;9.942;2023-07-31T06:58:04;9.88;;;3.20;;
34278;SDS011;20538;51.528;9.942;2023-07-31T07:00:30;9.85;;;3.50;;
34278;SDS011;20538;51.528;9.942;2023-07-31T07:02:57;9.07;;;3.13;;
34278;SDS011;20538;51.528;9.942;2023-07-31T07:05:22;6.18;;;2.67;;
34278;SDS011;20538;51.528;9.942;2023-07-31T07:07:49;6.43;;;3.35;;
34278;SDS011;20538;51.528;9.942;2023-07-31T07:10:18;7.72;;;2.92;;
34278;SDS011;20538;51.528;9.942;2023-07-31T07:12:44;7.00;;;3.03;;
34278;SDS011;20538;51.528;9.942;2023-07-31T07:15:09;9.57;;;3.15;;
34278;SDS011;20538;51.528;9.942;2023-07-31T07:17:35;9.48;;;3.33;;
34278;SDS011;20538;51.528;9.942;2023-07-31T07:20:01;7.68;;;3.45;;
34278;SDS011;20538;51.528;9.942;2023-07-31T07:22:26;8.10;;;2.97;;
34278;SDS011;20538;51.528;9.942;2023-07-31T07:24:52;6.35;;;3.00;;
34278;SDS011;20538;51.528;9.942;2023-07-31T07:27:18;10.00;;;2.90;;
34278;SDS011;20538;51.528;9.942;2023-07-31T07:29:46;8.13;;;2.80;;
34278;SDS011;20538;51.528;9.942;2023-07-31T07:32:12;5.82;;;2.58;;
34278;SDS011;20538;51.528;9.942;2023-07-31T07:34:38;4.38;;;2.63;;
34278;SDS011;20538;51.528;9.942;2023-07-31T07:37:03;7.43;;;3.42;;
34278;SDS011;20538;51.528;9.942;2023-07-31T07:39:29;7.78;;;3.05;;
34278;SDS011;20538;51.528;9.942;2023-07-31T07:41:55;8.60;;;3.22;;
34278;SDS011;20538;51.528;9.942;2023-07-31T07:44:21;5.50;;;3.20;;
34278;SDS011;20538;51.528;9.942;2023-07-31T07:46:46;6.10;;;3.08;;
34278;SDS011;20538;51.528;9.942;2023-07-31T07:49:12;6.18;;;3.08;;
34278;SDS011;20538;51.528;9.942;2023-07-31T07:51:39;6.40;;;2.90;;
34278;SDS011;20538;51.528;9.942;2023-07-31T07:54:05;5.70;;;2.72;;
34278;SDS011;20538;51.528;9.942;2023-07-31T07:56:31;8.05;;;3.05;;
34278;SDS011;20538;51.528;9.942;2023-07-31T07:58:58;6.15;;;2.85;;
34278;SDS011;20538;51.528;9.942;2023-07-31T08:01:24;7.07;;;3.10;;
34278;SDS011;20538;51.528;9.942;2023-07-31T08:03:49;5.47;;;2.55;;
34278;SDS011;20538;51.528;9.942;2023-07-31T08:06:15;5.68;;;2.38;;
34278;SDS011;20538;51.528;9.942;2023-07-31T08:08:41;3.50;;;2.13;;
34278;SDS011;20538;51.528;9.942;2023-07-31T08:11:07;6.50;;;2.47;;
34278;SDS011;20538;51.528;9.942;2023-07-31T08:13:32;3.33;;;2.08;;
34278;SDS011;20538;51.528;9.942;2023-07-31T08:15:58;5.50;;;2.50;;
34278;SDS011;20538;51.528;9.942;2023-07-31T08:18:24;4.95;;;2.40;;
34278;SDS011;20538;51.528;9.942;2023-07-31T08:20:49;3.70;;;2.35;;
34278;SDS011;20538;51.528;9.942;2023-07-31T08:23:15;6.32;;;2.33;;
34278;SDS011;20538;51.528;9.942;2023-07-31T08:25:40;9.75;;;2.47;;
34278;SDS011;20538;51.528;9.942;2023-07-31T08:28:07;6.47;;;2.35;;
34278;SDS011;20538;51.528;9.942;2023-07-31T08:30:32;4.47;;;2.53;;
34278;SDS011;20538;51.528;9.942;2023-07-31T08:32:58;8.50;;;2.70;;
34278;SDS011;20538;51.528;9.942;2023-07-31T08:35:25;5.78;;;2.95;;
34278;SDS011;20538;51.528;9.942;2023-07-31T08:37:53;9.60;;;3.13;;
34278;SDS011;20538;51.528;9.942;2023-07-31T08:40:19;7.00;;;3.00;;
34278;SDS011;20538;51.528;9.942;2023-07-31T08:42:45;5.60;;;2.90;;
34278;SDS011;20538;51.528;9.942;2023-07-31T08:45:15;7.97;;;3.00;;
34278;SDS011;20538;51.528;9.942;2023-07-31T08:47:45;6.95;;;2.80;;
34278;SDS011;20538;51.528;9.942;2023-07-31T08:50:13;8.18;;;3.38;;
34278;SDS011;20538;51.528;9.942;2023-07-31T08:52:40;6.78;;;3.10;;
34278;SDS011;20538;51.528;9.942;2023-07-31T08:55:07;5.10;;;3.08;;
34278;SDS011;20538;51.528;9.942;2023-07-31T08:57:37;8.38;;;3.17;;
34278;SDS011;20538;51.528;9.942;2023-07-31T09:00:04;4.75;;;3.20;;
34278;SDS011;20538;51.528;9.942;2023-07-31T09:02:35;13.73;;;3.45;;
34278;SDS011;20538;51.528;9.942;2023-07-31T09:05:06;8.85;;;3.88;;
34278;SDS011;20538;51.528;9.942;2023-07-31T09:07:36;7.90;;;3.25;;
34278;SDS011;20538;51.528;9.942;2023-07-31T09:10:03;7.38;;;3.25;;
34278;SDS011;20538;51.528;9.942;2023-07-31T09:12:29;8.13;;;3.60;;
34278;SDS011;20538;51.528;9.942;2023-07-31T09:14:58;6.20;;;3.22;;
34278;SDS011;20538;51.528;9.942;2023-07-31T09:17:28;8.57;;;2.90;;
34278;SDS011;20538;51.528;9.942;2023-07-31T09:19:55;8.18;;;3.42;;
34278;SDS011;20538;51.528;9.942;2023-07-31T09:22:34;9.07;;;2.80;;
34278;SDS011;20538;51.528;9.942;2023-07-31T09:30:49;7.85;;;2.70;;
34278;SDS011;20538;51.528;9.942;2023-07-31T09:33:16;7.45;;;3.55;;
34278;SDS011;20538;51.528;9.942;2023-07-31T09:35:43;6.70;;;3.17;;
34278;SDS011;20538;51.528;9.942;2023-07-31T09:38:12;7.25;;;3.00;;
34278;SDS011;20538;51.528;9.942;2023-07-31T09:40:40;6.10;;;3.35;;
34278;SDS011;20538;51.528;9.942;2023-07-31T09:43:11;6.25;;;3.03;;
34278;SDS011;20538;51.528;9.942;2023-07-31T09:45:41;5.68;;;2.63;;
34278;SDS011;20538;51.528;9.942;2023-07-31T09:48:12;4.53;;;2.67;;
34278;SDS011;20538;51.528;9.942;2023-07-31T09:50:41;5.90;;;2.72;;
34278;SDS011;20538;51.528;9.942;2023-07-31T09:53:08;9.90;;;4.00;;
34278;SDS011;20538;51.528;9.942;2023-07-31T09:55:34;7.30;;;2.92;;
34278;SDS011;20538;51.528;9.942;2023-07-31T09:58:03;7.13;;;3.38;;
34278;SDS011;20538;51.528;9.942;2023-07-31T10:00:33;7.32;;;2.83;;
34278;SDS011;20538;51.528;9.942;2023-07-31T10:02:59;7.55;;;3.08;;
34278;SDS011;20538;51.528;9.942;2023-07-31T10:05:42;7.53;;;3.10;;
34278;SDS011;20538;51.528;9.942;2023-07-31T10:08:15;6.10;;;2.78;;
34278;SDS011;20538;51.528;9.942;2023-07-31T10:10:43;5.65;;;2.50;;
34278;SDS011;20538;51.528;9.942;2023-07-31T10:13:09;6.63;;;3.05;;
34278;SDS011;20538;51.528;9.942;2023-07-31T10:15:36;6.35;;;2.88;;
34278;SDS011;20538;51.528;9.942;2023-07-31T10:18:02;5.80;;;2.85;;
34278;SDS011;20538;51.528;9.942;2023-07-31T10:20:27;6.20;;;2.30;;
34278;SDS011;20538;51.528;9.942;2023-07-31T10:22:55;8.20;;;3.22;;
34278;SDS011;20538;51.528;9.942;2023-07-31T10:25:21;7.00;;;3.58;;
34278;SDS011;20538;51.528;9.942;2023-07-31T10:27:47;5.82;;;3.00;;
34278;SDS011;20538;51.528;9.942;2023-07-31T10:30:15;6.63;;;2.58;;
34278;SDS011;20538;51.528;9.942;2023-07-31T10:32:44;5.60;;;2.67;;
34278;SDS011;20538;51.528;9.942;2023-07-31T10:35:11;9.45;;;2.65;;
34278;SDS011;20538;51.528;9.942;2023-07-31T10:37:38;4.78;;;2.80;;
34278;SDS011;20538;51.528;9.942;2023-07-31T10:40:09;7.20;;;3.15;;
34278;SDS011;20538;51.528;9.942;2023-07-31T10:42:51;6.43;;;2.88;;
34278;SDS011;20538;51.528;9.942;2023-07-31T10:48:22;9.68;;;3.20;;
34278;SDS011;20538;51.528;9.942;2023-07-31T10:50:54;7.30;;;3.22;;
34278;SDS011;20538;51.528;9.942;2023-07-31T10:53:31;11.35;;;3.20;;
34278;SDS011;20538;51.528;9.942;2023-07-31T10:56:01;6.18;;;2.78;;
34278;SDS011;20538;51.528;9.942;2023-07-31T10:58:29;5.75;;;2.65;;
34278;SDS011;20538;51.528;9.942;2023-07-31T11:01:01;6.90;;;3.65;;
34278;SDS011;20538;51.528;9.942;2023-07-31T11:03:43;6.57;;;3.40;;
34278;SDS011;20538;51.528;9.942;2023-07-31T11:06:09;5.47;;;2.88;;
34278;SDS011;20538;51.528;9.942;2023-07-31T11:08:38;7.60;;;2.92;;
34278;SDS011;20538;51.528;9.942;2023-07-31T11:11:08;6.85;;;2.83;;
34278;SDS011;20538;51.528;9.942;2023-07-31T11:13:46;6.72;;;3.20;;
34278;SDS011;20538;51.528;9.942;2023-07-31T11:16:20;6.97;;;3.42;;
34278;SDS011;20538;51.528;9.942;2023-07-31T11:18:48;4.93;;;3.10;;
34278;SDS011;20538;51.528;9.942;2023-07-31T11:21:18;13.15;;;3.75;;
34278;SDS011;20538;51.528;9.942;2023-07-31T11:23:46;6.40;;;3.10;;
34278;SDS011;20538;51.528;9.942;2023-07-31T11:26:17;9.98;;;3.38;;
34278;SDS011;20538;51.528;9.942;2023-07-31T11:28:43;6.65;;;3.00;;
34278;SDS011;20538;51.528;9.942;2023-07-31T11:31:11;8.52;;;3.65;;
34278;SDS011;20538;51.528;9.942;2023-07-31T11:33:37;5.60;;;3.33;;
34278;SDS011;20538;51.528;9.942;2023-07-31T11:36:02;11.07;;;3.20;;
34278;SDS011;20538;51.528;9.942;2023-07-31T11:38:32;7.75;;;3.50;;
34278;SDS011;20538;51.528;9.942;2023-07-31T11:41:00;14.02;;;3.38;;
34278;SDS011;20538;51.528;9.942;2023-07-31T11:43:29;9.57;;;3.20;;
34278;SDS011;20538;51.528;9.942;2023-07-31T11:45:58;4.95;;;2.90;;
34278;SDS011;20538;51.528;9.942;2023-07-31T11:48:25;8.48;;;3.03;;
34278;SDS011;20538;51.528;9.942;2023-07-31T11:50:53;6.50;;;2.80;;
34278;SDS011;20538;51.528;9.942;2023-07-31T11:53:26;8.05;;;3.17;;
34278;SDS011;20538;51.528;9.942;2023-07-31T11:56:02;5.50;;;2.70;;
34278;SDS011;20538;51.528;9.942;2023-07-31T11:58:32;6.00;;;3.05;;
34278;SDS011;20538;51.528;9.942;2023-07-31T12:01:00;7.18;;;3.17;;
34278;SDS011;20538;51.528;9.942;2023-07-31T12:03:27;5.50;;;2.80;;
34278;SDS011;20538;51.528;9.942;2023-07-31T12:05:53;10.43;;;2.90;;
34278;SDS011;20538;51.528;9.942;2023-07-31T12:08:25;7.85;;;3.05;;
34278;SDS011;20538;51.528;9.942;2023-07-31T12:10:52;7.10;;;3.13;;
34278;SDS011;20538;51.528;9.942;2023-07-31T12:13:22;5.53;;;2.95;;
34278;SDS011;20538;51.528;9.942;2023-07-31T12:15:53;5.47;;;3.05;;
34278;SDS011;20538;51.528;9.942;2023-07-31T12:18:24;6.10;;;2.85;;
34278;SDS011;20538;51.528;9.942;2023-07-31T12:20:58;3.72;;;2.30;;
34278;SDS011;20538;51.528;9.942;2023-07-31T12:23:25;10.52;;;2.95;;
34278;SDS011;20538;51.528;9.942;2023-07-31T12:28:36;7.38;;;2.53;;
34278;SDS011;20538;51.528;9.942;2023-07-31T12:31:08;5.32;;;2.00;;
34278;SDS011;20538;51.528;9.942;2023-07-31T12:33:35;4.50;;;2.45;;
34278;SDS011;20538;51.528;9.942;2023-07-31T12:36:03;4.43;;;2.20;;
34278;SDS011;20538;51.528;9.942;2023-07-31T12:38:31;5.28;;;3.05;;
34278;SDS011;20538;51.528;9.942;2023-07-31T12:40:57;5.47;;;3.17;;
34278;SDS011;20538;51.528;9.942;2023-07-31T12:43:23;5.50;;;2.97;;
34278;SDS011;20538;51.528;9.942;2023-07-31T12:45:48;3.90;;;2.63;;
34278;SDS011;20538;51.528;9.942;2023-07-31T12:48:14;4.85;;;2.67;;
34278;SDS011;20538;51.528;9.942;2023-07-31T12:50:40;4.35;;;2.40;;
34278;SDS011;20538;51.528;9.942;2023-07-31T12:53:05;5.80;;;2.72;;
34278;SDS011;20538;51.528;9.942;2023-07-31T12:55:32;5.70;;;3.00;;
34278;SDS011;20538;51.528;9.942;2023-07-31T12:58:02;6.57;;;2.38;;
34278;SDS011;20538;51.528;9.942;2023-07-31T13:00:28;6.05;;;2.88;;
34278;SDS011;20538;51.528;9.942;2023-07-31T13:02:54;6.05;;;2.67;;
34278;SDS011;20538;51.528;9.942;2023-07-31T13:05:20;7.53;;;3.00;;
34278;SDS011;20538;51.528;9.942;2023-07-31T13:07:46;4.95;;;3.15;;
34278;SDS011;20538;51.528;9.942;2023-07-31T13:10:13;7.20;;;3.58;;
34278;SDS011;20538;51.528;9.942;2023-07-31T13:12:39;5.55;;;3.35;;
34278;SDS011;20538;51.528;9.942;2023-07-31T13:15:05;5.47;;;3.42;;
34278;SDS011;20538;51.528;9.942;2023-07-31T13:17:32;6.53;;;3.15;;
34278;SDS011;20538;51.528;9.942;2023-07-31T13:19:58;6.63;;;3.70;;
34278;SDS011;20538;51.528;9.942;2023-07-31T13:22:24;9.23;;;3.65;;
34278;SDS011;20538;51.528;9.942;2023-07-31T13:24:50;9.20;;;3.08;;
34278;SDS011;20538;51.528;9.942;2023-07-31T13:27:15;6.60;;;3.50;;
34278;SDS011;20538;51.528;9.942;2023-07-31T13:29:43;8.68;;;3.30;;
34278;SDS011;20538;51.528;9.942;2023-07-31T13:32:09;6.35;;;3.20;;
34278;SDS011;20538;51.528;9.942;2023-07-31T13:34:35;4.65;;;2.67;;
34278;SDS011;20538;51.528;9.942;2023-07-31T13:37:01;9.65;;;3.30;;
34278;SDS011;20538;51.528;9.942;2023-07-31T13:39:26;4.93;;;3.22;;
34278;SDS011;20538;51.528;9.942;2023-07-31T13:41:52;9.32;;;3.33;;
34278;SDS011;20538;51.528;9.942;2023-07-31T13:44:18;9.77;;;3.33;;
34278;SDS011;20538;51.528;9.942;2023-07-31T13:46:43;6.38;;;3.28;;
34278;SDS011;20538;51.528;9.942;2023-07-31T13:49:09;7.82;;;3.45;;
34278;SDS011;20538;51.528;9.942;2023-07-31T13:51:34;6.93;;;3.17;;
34278;SDS011;20538;51.528;9.942;2023-07-31T13:54:01;6.90;;;3.45;;
34278;SDS011;20538;51.528;9.942;2023-07-31T13:56:26;7.97;;;3.28;;
34278;SDS011;20538;51.528;9.942;2023-07-31T13:58:52;7.72;;;3.72;;
34278;SDS011;20538;51.528;9.942;2023-07-31T14:01:18;10.90;;;4.10;;
34278;SDS011;20538;51.528;9.942;2023-07-31T14:03:44;6.75;;;3.03;;
34278;SDS011;20538;51.528;9.942;2023-07-31T14:06:10;10.43;;;3.60;;
34278;SDS011;20538;51.528;9.942;2023-07-31T14:08:35;6.95;;;3.30;;
34278;SDS011;20538;51.528;9.942;2023-07-31T14:11:01;5.90;;;3.08;;
34278;SDS011;20538;51.528;9.942;2023-07-31T14:13:27;6.80;;;3.42;;
34278;SDS011;20538;51.528;9.942;2023-07-31T14:15:53;6.97;;;2.85;;
34278;SDS011;20538;51.528;9.942;2023-07-31T14:18:19;7.15;;;2.95;;
34278;SDS011;20538;51.528;9.942;2023-07-31T14:20:45;7.43;;;3.63;;
34278;SDS011;20538;51.528;9.942;2023-07-31T14:23:10;7.15;;;2.53;;
34278;SDS011;20538;51.528;9.942;2023-07-31T14:25:36;7.93;;;3.03;;
34278;SDS011;20538;51.528;9.942;2023-07-31T14:28:02;6.63;;;3.10;;
34278;SDS011;20538;51.528;9.942;2023-07-31T14:30:27;7.15;;;3.58;;
34278;SDS011;20538;51.528;9.942;2023-07-31T14:32:53;4.78;;;2.75;;
34278;SDS011;20538;51.528;9.942;2023-07-31T14:35:19;6.85;;;2.67;;
34278;SDS011;20538;51.528;9.942;2023-07-31T14:37:44;7.72;;;2.90;;
34278;SDS011;20538;51.528;9.942;2023-07-31T14:40:11;8.45;;;5.22;;
34278;SDS011;20538;51.528;9.942;2023-07-31T14:42:37;8.43;;;2.97;;
34278;SDS011;20538;51.528;9.942;2023-07-31T14:45:06;6.22;;;2.70;;
34278;SDS011;20538;51.528;9.942;2023-07-31T14:47:32;5.28;;;2.88;;
34278;SDS011;20538;51.528;9.942;2023-07-31T14:49:59;6.05;;;2.67;;
34278;SDS011;20538;51.528;9.942;2023-07-31T14:52:25;7.63;;;3.30;;
34278;SDS011;20538;51.528;9.942;2023-07-31T14:54:51;6.90;;;3.78;;
34278;SDS011;20538;51.528;9.942;2023-07-31T14:57:17;6.80;;;3.20;;
34278;SDS011;20538;51.528;9.942;2023-07-31T14:59:43;7.55;;;3.22;;